sensor_id;sensor_type;location;lat;lon;timestamp;temperature;humidity
5150;DHT22;2593;52.466;13.436;2022-11-15T00:00:17;5.60;99.90
5150;DHT22;2593;52.466;13.436;2022-11-15T00:02:42;5.60;99.90
5150;DHT22;2593;52.466;13.436;2022-11-15T00:05:08;5.60;99.90
5150;DHT22;2593;52.466;13.436;2022-11-15T00:07:34;5.60;99.90
5150;DHT22;2593;52.466;13.436;2022-11-15T00:09:59;5.60;99.90
5150;DHT22;2593;52.466;13.436;2022-11-15T00:12:27;5.60;99.90
5150;DHT22;2593;52.466;13.436;2022-11-15T00:14:53;5.50;99.90
5150;DHT22;2593;52.466;13.436;2022-11-15T00:17:19;5.50;99.90
5150;DHT22;2593;52.466;13.436;2022-11-15T00:19:44;5.60;99.90
5150;DHT22;2593;52.466;13.436;2022-11-15T00:22:10;5.50;99.90
5150;DHT22;2593;52.466;13.436;2022-11-15T00:24:36;5.50;99.90
5150;DHT22;2593;52.466;13.436;2022-11-15T00:27:01;5.50;99.90
5150;DHT22;2593;52.466;13.436;2022-11-15T00:29:27;5.50;99.90
5150;DHT22;2593;52.466;13.436;2022-11-15T00:31:53;5.40;99.90
5150;DHT22;2593;52.466;13.436;2022-11-15T00:34:18;5.50;99.90
5150;DHT22;2593;52.466;13.436;2022-11-15T00:36:44;5.40;99.90
5150;DHT22;2593;52.466;13.436;2022-11-15T00:39:09;5.40;99.90
5150;DHT22;2593;52.466;13.436;2022-11-15T00:41:35;5.40;99.90
5150;DHT22;2593;52.466;13.436;2022-11-15T00:44:01;5.40;99.90
5150;DHT22;2593;52.466;13.436;2022-11-15T00:46:26;5.40;99.90
5150;DHT22;2593;52.466;13.436;2022-11-15T00:48:52;5.40;99.90
5150;DHT22;2593;52.466;13.436;2022-11-15T00:51:18;5.30;99.90
5150;DHT22;2593;52.466;13.436;2022-11-15T00:53:43;5.30;99.90
5150;DHT22;2593;52.466;13.436;2022-11-15T00:56:09;5.30;99.90
5150;DHT22;2593;52.466;13.436;2022-11-15T00:58:34;5.30;99.90
5150;DHT22;2593;52.466;13.436;2022-11-15T01:01:11;5.30;99.90
5150;DHT22;2593;52.466;13.436;2022-11-15T01:03:38;5.30;99.90
5150;DHT22;2593;52.466;13.436;2022-11-15T01:06:04;5.20;99.90
5150;DHT22;2593;52.466;13.436;2022-11-15T01:08:30;5.20;99.90
5150;DHT22;2593;52.466;13.436;2022-11-15T01:11:01;5.20;99.90
5150;DHT22;2593;52.466;13.436;2022-11-15T01:13:30;5.20;99.90
5150;DHT22;2593;52.466;13.436;2022-11-15T01:15:56;5.20;99.90
5150;DHT22;2593;52.466;13.436;2022-11-15T01:18:22;5.20;99.90
5150;DHT22;2593;52.466;13.436;2022-11-15T01:20:47;5.10;99.90
5150;DHT22;2593;52.466;13.436;2022-11-15T01:23:13;5.20;99.90
5150;DHT22;2593;52.466;13.436;2022-11-15T01:25:39;5.10;99.90
5150;DHT22;2593;52.466;13.436;2022-11-15T01:28:05;5.20;99.90
5150;DHT22;2593;52.466;13.436;2022-11-15T01:30:30;5.10;99.90
5150;DHT22;2593;52.466;13.436;2022-11-15T01:32:56;5.10;99.90
5150;DHT22;2593;52.466;13.436;2022-11-15T01:35:22;5.10;99.90
5150;DHT22;2593;52.466;13.436;2022-11-15T01:37:47;5.10;99.90
5150;DHT22;2593;52.466;13.436;2022-11-15T01:40:13;5.10;99.90
5150;DHT22;2593;52.466;13.436;2022-11-15T01:42:38;5.10;99.90
5150;DHT22;2593;52.466;13.436;2022-11-15T01:45:04;5.10;99.90
5150;DHT22;2593;52.466;13.436;2022-11-15T01:47:36;5.10;99.90
5150;DHT22;2593;52.466;13.436;2022-11-15T01:50:06;5.10;99.90
5150;DHT22;2593;52.466;13.436;2022-11-15T01:52:34;5.10;99.90
5150;DHT22;2593;52.466;13.436;2022-11-15T01:57:39;5.10;99.90
5150;DHT22;2593;52.466;13.436;2022-11-15T02:00:07;5.00;99.90
5150;DHT22;2593;52.466;13.436;2022-11-15T02:02:33;5.00;99.90
5150;DHT22;2593;52.466;13.436;2022-11-15T02:04:59;5.00;99.90
5150;DHT22;2593;52.466;13.436;2022-11-15T02:07:25;5.00;99.90
5150;DHT22;2593;52.466;13.436;2022-11-15T02:09:52;5.00;99.90
5150;DHT22;2593;52.466;13.436;2022-11-15T02:12:20;4.90;99.90
5150;DHT22;2593;52.466;13.436;2022-11-15T02:14:50;4.90;99.90
5150;DHT22;2593;52.466;13.436;2022-11-15T02:17:42;4.90;99.90
5150;DHT22;2593;52.466;13.436;2022-11-15T02:23:42;4.90;99.90
5150;DHT22;2593;52.466;13.436;2022-11-15T02:26:30;4.80;99.90
5150;DHT22;2593;52.466;13.436;2022-11-15T02:31:59;4.80;99.90
5150;DHT22;2593;52.466;13.436;2022-11-15T02:37:16;4.80;99.90
5150;DHT22;2593;52.466;13.436;2022-11-15T02:39:49;4.80;99.90
5150;DHT22;2593;52.466;13.436;2022-11-15T02:42:21;4.80;99.90
5150;DHT22;2593;52.466;13.436;2022-11-15T02:45:09;4.80;99.90
5150;DHT22;2593;52.466;13.436;2022-11-15T02:47:48;4.80;99.90
5150;DHT22;2593;52.466;13.436;2022-11-15T02:50:18;4.80;99.90
5150;DHT22;2593;52.466;13.436;2022-11-15T02:52:46;4.70;99.90
5150;DHT22;2593;52.466;13.436;2022-11-15T02:55:33;4.80;99.90
5150;DHT22;2593;52.466;13.436;2022-11-15T03:01:05;4.70;99.90
5150;DHT22;2593;52.466;13.436;2022-11-15T03:06:22;4.70;99.90
5150;DHT22;2593;52.466;13.436;2022-11-15T03:09:09;4.70;99.90
5150;DHT22;2593;52.466;13.436;2022-11-15T03:11:49;4.80;99.90
5150;DHT22;2593;52.466;13.436;2022-11-15T03:14:24;4.70;99.90
5150;DHT22;2593;52.466;13.436;2022-11-15T03:17:15;4.80;99.90
5150;DHT22;2593;52.466;13.436;2022-11-15T03:22:11;4.80;99.90
5150;DHT22;2593;52.466;13.436;2022-11-15T03:24:38;4.80;99.90
5150;DHT22;2593;52.466;13.436;2022-11-15T03:27:06;4.80;99.90
5150;DHT22;2593;52.466;13.436;2022-11-15T03:29:37;4.80;99.90
5150;DHT22;2593;52.466;13.436;2022-11-15T03:32:18;4.80;99.90
5150;DHT22;2593;52.466;13.436;2022-11-15T03:34:51;4.80;99.90
5150;DHT22;2593;52.466;13.436;2022-11-15T03:37:22;4.80;99.90
5150;DHT22;2593;52.466;13.436;2022-11-15T03:39:50;4.80;99.90
5150;DHT22;2593;52.466;13.436;2022-11-15T03:42:26;4.80;99.90
5150;DHT22;2593;52.466;13.436;2022-11-15T03:45:01;4.80;99.90
5150;DHT22;2593;52.466;13.436;2022-11-15T03:47:38;4.70;99.90
5150;DHT22;2593;52.466;13.436;2022-11-15T03:50:10;4.80;99.90
5150;DHT22;2593;52.466;13.436;2022-11-15T03:52:37;4.80;99.90
5150;DHT22;2593;52.466;13.436;2022-11-15T03:55:06;4.80;99.90
5150;DHT22;2593;52.466;13.436;2022-11-15T03:57:33;4.70;99.90
5150;DHT22;2593;52.466;13.436;2022-11-15T03:59:59;4.70;99.90
5150;DHT22;2593;52.466;13.436;2022-11-15T04:02:24;4.70;99.90
5150;DHT22;2593;52.466;13.436;2022-11-15T04:04:52;4.70;99.90
5150;DHT22;2593;52.466;13.436;2022-11-15T04:07:17;4.70;99.90
5150;DHT22;2593;52.466;13.436;2022-11-15T04:09:43;4.70;99.90
5150;DHT22;2593;52.466;13.436;2022-11-15T04:12:28;4.70;99.90
5150;DHT22;2593;52.466;13.436;2022-11-15T04:15:08;4.70;99.90
5150;DHT22;2593;52.466;13.436;2022-11-15T04:17:36;4.70;99.90
5150;DHT22;2593;52.466;13.436;2022-11-15T04:20:21;4.70;99.90
5150;DHT22;2593;52.466;13.436;2022-11-15T04:23:10;4.70;99.90
5150;DHT22;2593;52.466;13.436;2022-11-15T04:25:56;4.70;99.90
5150;DHT22;2593;52.466;13.436;2022-11-15T04:28:23;4.70;99.90
5150;DHT22;2593;52.466;13.436;2022-11-15T04:30:48;4.60;99.90
5150;DHT22;2593;52.466;13.436;2022-11-15T04:33:14;4.60;99.90
5150;DHT22;2593;52.466;13.436;2022-11-15T04:35:40;4.70;99.90
5150;DHT22;2593;52.466;13.436;2022-11-15T04:38:08;4.70;99.90
5150;DHT22;2593;52.466;13.436;2022-11-15T04:40:35;4.70;99.90
5150;DHT22;2593;52.466;13.436;2022-11-15T04:43:01;4.70;99.90
5150;DHT22;2593;52.466;13.436;2022-11-15T04:45:27;4.70;99.90
5150;DHT22;2593;52.466;13.436;2022-11-15T04:47:52;4.70;99.90
5150;DHT22;2593;52.466;13.436;2022-11-15T04:50:18;4.70;99.90
5150;DHT22;2593;52.466;13.436;2022-11-15T04:52:51;4.70;99.90
5150;DHT22;2593;52.466;13.436;2022-11-15T04:55:16;4.70;99.90
5150;DHT22;2593;52.466;13.436;2022-11-15T04:57:42;4.80;99.90
5150;DHT22;2593;52.466;13.436;2022-11-15T05:00:10;4.70;99.90
5150;DHT22;2593;52.466;13.436;2022-11-15T05:02:36;4.80;99.90
5150;DHT22;2593;52.466;13.436;2022-11-15T05:05:21;4.70;99.90
5150;DHT22;2593;52.466;13.436;2022-11-15T05:07:47;4.70;99.90
5150;DHT22;2593;52.466;13.436;2022-11-15T05:10:12;4.70;99.90
5150;DHT22;2593;52.466;13.436;2022-11-15T05:12:38;4.70;99.90
5150;DHT22;2593;52.466;13.436;2022-11-15T05:15:04;4.70;99.90
5150;DHT22;2593;52.466;13.436;2022-11-15T05:17:30;4.70;99.90
5150;DHT22;2593;52.466;13.436;2022-11-15T05:19:55;4.70;99.90
5150;DHT22;2593;52.466;13.436;2022-11-15T05:22:21;4.70;99.90
5150;DHT22;2593;52.466;13.436;2022-11-15T05:24:47;4.70;99.90
5150;DHT22;2593;52.466;13.436;2022-11-15T05:27:12;4.70;99.90
5150;DHT22;2593;52.466;13.436;2022-11-15T05:29:38;4.80;99.90
5150;DHT22;2593;52.466;13.436;2022-11-15T05:32:05;4.80;99.90
5150;DHT22;2593;52.466;13.436;2022-11-15T05:34:31;4.80;99.90
5150;DHT22;2593;52.466;13.436;2022-11-15T05:36:57;4.80;99.90
5150;DHT22;2593;52.466;13.436;2022-11-15T05:39:24;4.80;99.90
5150;DHT22;2593;52.466;13.436;2022-11-15T05:41:59;4.80;99.90
5150;DHT22;2593;52.466;13.436;2022-11-15T05:44:26;4.80;99.90
5150;DHT22;2593;52.466;13.436;2022-11-15T05:46:54;4.80;99.90
5150;DHT22;2593;52.466;13.436;2022-11-15T05:49:23;4.80;99.90
5150;DHT22;2593;52.466;13.436;2022-11-15T05:51:51;4.90;99.90
5150;DHT22;2593;52.466;13.436;2022-11-15T05:54:17;4.90;99.90
5150;DHT22;2593;52.466;13.436;2022-11-15T05:56:45;4.80;99.90
5150;DHT22;2593;52.466;13.436;2022-11-15T05:59:11;4.80;99.90
5150;DHT22;2593;52.466;13.436;2022-11-15T06:01:37;4.80;99.90
5150;DHT22;2593;52.466;13.436;2022-11-15T06:04:04;4.90;99.90
5150;DHT22;2593;52.466;13.436;2022-11-15T06:06:29;4.90;99.90
5150;DHT22;2593;52.466;13.436;2022-11-15T06:08:55;4.90;99.90
5150;DHT22;2593;52.466;13.436;2022-11-15T06:11:21;4.80;99.90
5150;DHT22;2593;52.466;13.436;2022-11-15T06:13:46;4.80;99.90
5150;DHT22;2593;52.466;13.436;2022-11-15T06:16:12;4.90;99.90
5150;DHT22;2593;52.466;13.436;2022-11-15T06:18:38;4.80;99.90
5150;DHT22;2593;52.466;13.436;2022-11-15T06:21:04;4.80;99.90
5150;DHT22;2593;52.466;13.436;2022-11-15T06:23:34;4.80;99.90
5150;DHT22;2593;52.466;13.436;2022-11-15T06:26:01;4.80;99.90
5150;DHT22;2593;52.466;13.436;2022-11-15T06:28:31;4.90;99.90
5150;DHT22;2593;52.466;13.436;2022-11-15T06:31:04;4.80;99.90
5150;DHT22;2593;52.466;13.436;2022-11-15T06:33:30;4.80;99.90
5150;DHT22;2593;52.466;13.436;2022-11-15T06:36:00;4.80;99.90
5150;DHT22;2593;52.466;13.436;2022-11-15T06:38:26;4.80;99.90
5150;DHT22;2593;52.466;13.436;2022-11-15T06:40:52;4.90;99.90
5150;DHT22;2593;52.466;13.436;2022-11-15T06:43:17;4.90;99.90
5150;DHT22;2593;52.466;13.436;2022-11-15T06:45:43;4.90;99.90
5150;DHT22;2593;52.466;13.436;2022-11-15T06:48:08;4.80;99.90
5150;DHT22;2593;52.466;13.436;2022-11-15T06:50:34;4.90;99.90
5150;DHT22;2593;52.466;13.436;2022-11-15T06:53:03;4.90;99.90
5150;DHT22;2593;52.466;13.436;2022-11-15T06:55:30;4.90;99.90
5150;DHT22;2593;52.466;13.436;2022-11-15T06:57:55;5.00;99.90
5150;DHT22;2593;52.466;13.436;2022-11-15T07:00:22;5.00;99.90
5150;DHT22;2593;52.466;13.436;2022-11-15T07:02:48;5.10;99.90
5150;DHT22;2593;52.466;13.436;2022-11-15T07:05:15;5.10;99.90
5150;DHT22;2593;52.466;13.436;2022-11-15T07:07:41;5.10;99.90
5150;DHT22;2593;52.466;13.436;2022-11-15T07:10:07;5.20;99.90
5150;DHT22;2593;52.466;13.436;2022-11-15T07:12:33;5.20;99.90
5150;DHT22;2593;52.466;13.436;2022-11-15T07:14:59;5.30;99.90
5150;DHT22;2593;52.466;13.436;2022-11-15T07:17:25;5.20;99.90
5150;DHT22;2593;52.466;13.436;2022-11-15T07:19:51;5.30;99.90
5150;DHT22;2593;52.466;13.436;2022-11-15T07:22:16;5.40;99.90
5150;DHT22;2593;52.466;13.436;2022-11-15T07:24:42;5.40;99.90
5150;DHT22;2593;52.466;13.436;2022-11-15T07:27:08;5.40;99.90
5150;DHT22;2593;52.466;13.436;2022-11-15T07:29:33;5.50;99.90
5150;DHT22;2593;52.466;13.436;2022-11-15T07:31:59;5.50;99.90
5150;DHT22;2593;52.466;13.436;2022-11-15T07:34:25;5.60;99.90
5150;DHT22;2593;52.466;13.436;2022-11-15T07:36:51;5.60;99.90
5150;DHT22;2593;52.466;13.436;2022-11-15T07:39:16;5.70;99.90
5150;DHT22;2593;52.466;13.436;2022-11-15T07:41:42;5.80;99.90
5150;DHT22;2593;52.466;13.436;2022-11-15T07:44:08;5.80;99.90
5150;DHT22;2593;52.466;13.436;2022-11-15T07:46:34;5.90;99.90
5150;DHT22;2593;52.466;13.436;2022-11-15T07:49:00;6.00;99.90
5150;DHT22;2593;52.466;13.436;2022-11-15T07:51:25;6.10;99.90
5150;DHT22;2593;52.466;13.436;2022-11-15T07:53:51;6.20;99.90
5150;DHT22;2593;52.466;13.436;2022-11-15T07:56:16;6.30;99.90
5150;DHT22;2593;52.466;13.436;2022-11-15T07:58:42;6.60;99.90
5150;DHT22;2593;52.466;13.436;2022-11-15T08:01:10;6.90;99.90
5150;DHT22;2593;52.466;13.436;2022-11-15T08:03:36;7.20;99.90
5150;DHT22;2593;52.466;13.436;2022-11-15T08:06:02;7.50;99.90
5150;DHT22;2593;52.466;13.436;2022-11-15T08:08:28;8.00;99.90
5150;DHT22;2593;52.466;13.436;2022-11-15T08:10:53;8.30;99.90
5150;DHT22;2593;52.466;13.436;2022-11-15T08:13:19;8.70;99.90
5150;DHT22;2593;52.466;13.436;2022-11-15T08:15:45;8.90;99.90
5150;DHT22;2593;52.466;13.436;2022-11-15T08:18:13;9.20;99.90
5150;DHT22;2593;52.466;13.436;2022-11-15T08:20:40;9.30;99.90
5150;DHT22;2593;52.466;13.436;2022-11-15T08:23:07;9.40;99.90
5150;DHT22;2593;52.466;13.436;2022-11-15T08:25:34;9.40;1.00
5150;DHT22;2593;52.466;13.436;2022-11-15T08:28:02;9.60;1.00
5150;DHT22;2593;52.466;13.436;2022-11-15T08:30:30;10.00;1.00
5150;DHT22;2593;52.466;13.436;2022-11-15T08:32:57;10.70;1.00
5150;DHT22;2593;52.466;13.436;2022-11-15T08:35:23;11.70;99.90
5150;DHT22;2593;52.466;13.436;2022-11-15T08:37:50;12.50;99.90
5150;DHT22;2593;52.466;13.436;2022-11-15T08:40:17;13.10;71.40
5150;DHT22;2593;52.466;13.436;2022-11-15T08:42:46;13.20;35.80
5150;DHT22;2593;52.466;13.436;2022-11-15T08:45:12;12.40;27.80
5150;DHT22;2593;52.466;13.436;2022-11-15T08:47:38;11.50;80.70
5150;DHT22;2593;52.466;13.436;2022-11-15T08:50:04;11.10;99.90
5150;DHT22;2593;52.466;13.436;2022-11-15T08:52:30;11.00;99.90
5150;DHT22;2593;52.466;13.436;2022-11-15T08:54:56;11.20;99.90
5150;DHT22;2593;52.466;13.436;2022-11-15T08:57:21;11.50;99.90
5150;DHT22;2593;52.466;13.436;2022-11-15T08:59:47;11.80;99.90
5150;DHT22;2593;52.466;13.436;2022-11-15T09:02:13;12.10;99.90
5150;DHT22;2593;52.466;13.436;2022-11-15T09:04:43;12.60;98.00
5150;DHT22;2593;52.466;13.436;2022-11-15T09:07:10;12.70;66.60
5150;DHT22;2593;52.466;13.436;2022-11-15T09:09:37;12.50;64.20
5150;DHT22;2593;52.466;13.436;2022-11-15T09:12:04;12.20;79.60
5150;DHT22;2593;52.466;13.436;2022-11-15T09:14:30;11.90;99.90
5150;DHT22;2593;52.466;13.436;2022-11-15T09:16:56;11.70;99.90
5150;DHT22;2593;52.466;13.436;2022-11-15T09:19:21;11.80;99.90
5150;DHT22;2593;52.466;13.436;2022-11-15T09:21:47;12.00;99.90
5150;DHT22;2593;52.466;13.436;2022-11-15T09:24:13;12.50;99.90
5150;DHT22;2593;52.466;13.436;2022-11-15T09:26:39;12.90;95.90
5150;DHT22;2593;52.466;13.436;2022-11-15T09:29:04;13.10;51.30
5150;DHT22;2593;52.466;13.436;2022-11-15T09:31:30;13.50;37.40
5150;DHT22;2593;52.466;13.436;2022-11-15T09:33:56;13.70;14.70
5150;DHT22;2593;52.466;13.436;2022-11-15T09:36:21;13.70;12.00
5150;DHT22;2593;52.466;13.436;2022-11-15T09:38:47;14.60;11.40
5150;DHT22;2593;52.466;13.436;2022-11-15T09:49:02;19.30;1.00
5150;DHT22;2593;52.466;13.436;2022-11-15T09:51:34;20.40;1.00
5150;DHT22;2593;52.466;13.436;2022-11-15T09:56:36;21.90;1.00
5150;DHT22;2593;52.466;13.436;2022-11-15T09:59:14;22.80;1.00
5150;DHT22;2593;52.466;13.436;2022-11-15T10:04:36;23.10;1.00
5150;DHT22;2593;52.466;13.436;2022-11-15T10:12:11;19.70;1.00
5150;DHT22;2593;52.466;13.436;2022-11-15T10:14:38;17.50;1.00
5150;DHT22;2593;52.466;13.436;2022-11-15T10:20:21;15.20;1.00
5150;DHT22;2593;52.466;13.436;2022-11-15T10:22:52;14.50;1.00
5150;DHT22;2593;52.466;13.436;2022-11-15T10:25:27;14.10;1.00
5150;DHT22;2593;52.466;13.436;2022-11-15T10:30:48;13.10;1.00
5150;DHT22;2593;52.466;13.436;2022-11-15T10:33:31;12.90;3.30
5150;DHT22;2593;52.466;13.436;2022-11-15T10:36:25;12.60;25.10
5150;DHT22;2593;52.466;13.436;2022-11-15T10:38:54;12.50;47.10
5150;DHT22;2593;52.466;13.436;2022-11-15T10:46:36;12.20;95.90
5150;DHT22;2593;52.466;13.436;2022-11-15T10:49:29;12.10;99.90
5150;DHT22;2593;52.466;13.436;2022-11-15T10:51:58;11.90;99.90
5150;DHT22;2593;52.466;13.436;2022-11-15T10:54:37;11.90;99.90
5150;DHT22;2593;52.466;13.436;2022-11-15T10:57:17;11.80;99.90
5150;DHT22;2593;52.466;13.436;2022-11-15T10:59:48;11.90;99.90
5150;DHT22;2593;52.466;13.436;2022-11-15T11:02:45;11.90;99.90
5150;DHT22;2593;52.466;13.436;2022-11-15T11:08:20;11.90;99.90
5150;DHT22;2593;52.466;13.436;2022-11-15T11:10:54;11.80;99.90
5150;DHT22;2593;52.466;13.436;2022-11-15T11:13:25;11.70;99.90
5150;DHT22;2593;52.466;13.436;2022-11-15T11:18:54;11.70;99.90
5150;DHT22;2593;52.466;13.436;2022-11-15T11:24:25;11.70;99.90
5150;DHT22;2593;52.466;13.436;2022-11-15T11:27:18;11.70;99.90
5150;DHT22;2593;52.466;13.436;2022-11-15T11:32:50;11.80;99.90
5150;DHT22;2593;52.466;13.436;2022-11-15T11:38:24;11.80;99.90
5150;DHT22;2593;52.466;13.436;2022-11-15T11:49:09;11.80;99.90
5150;DHT22;2593;52.466;13.436;2022-11-15T11:52:00;11.90;99.90
5150;DHT22;2593;52.466;13.436;2022-11-15T12:00:26;11.90;99.90
5150;DHT22;2593;52.466;13.436;2022-11-15T12:06:04;12.00;99.90
5150;DHT22;2593;52.466;13.436;2022-11-15T12:08:40;12.00;99.90
5150;DHT22;2593;52.466;13.436;2022-11-15T12:13:50;12.10;99.90
5150;DHT22;2593;52.466;13.436;2022-11-15T12:16:26;12.10;99.90
5150;DHT22;2593;52.466;13.436;2022-11-15T12:18:54;12.10;99.90
5150;DHT22;2593;52.466;13.436;2022-11-15T12:26:52;12.20;99.90
5150;DHT22;2593;52.466;13.436;2022-11-15T12:30:39;12.20;99.90
5150;DHT22;2593;52.466;13.436;2022-11-15T12:32:39;12.20;99.90
5150;DHT22;2593;52.466;13.436;2022-11-15T12:35:37;12.20;99.90
5150;DHT22;2593;52.466;13.436;2022-11-15T12:38:04;12.20;99.90
5150;DHT22;2593;52.466;13.436;2022-11-15T12:40:36;12.20;99.90
5150;DHT22;2593;52.466;13.436;2022-11-15T12:45:36;12.10;99.90
5150;DHT22;2593;52.466;13.436;2022-11-15T12:58:42;12.30;99.90
5150;DHT22;2593;52.466;13.436;2022-11-15T13:01:09;12.40;99.90
5150;DHT22;2593;52.466;13.436;2022-11-15T13:03:35;12.40;99.90
5150;DHT22;2593;52.466;13.436;2022-11-15T13:06:38;12.50;99.90
5150;DHT22;2593;52.466;13.436;2022-11-15T13:14:56;12.40;99.90
5150;DHT22;2593;52.466;13.436;2022-11-15T13:17:23;12.50;99.90
5150;DHT22;2593;52.466;13.436;2022-11-15T13:20:08;12.50;99.90
5150;DHT22;2593;52.466;13.436;2022-11-15T13:22:58;12.50;99.90
5150;DHT22;2593;52.466;13.436;2022-11-15T13:25:48;12.40;99.90
5150;DHT22;2593;52.466;13.436;2022-11-15T13:28:20;12.40;99.90
5150;DHT22;2593;52.466;13.436;2022-11-15T13:33:35;12.50;99.90
5150;DHT22;2593;52.466;13.436;2022-11-15T13:36:05;12.50;99.90
5150;DHT22;2593;52.466;13.436;2022-11-15T13:38:34;12.70;99.90
5150;DHT22;2593;52.466;13.436;2022-11-15T13:41:17;12.70;99.90
5150;DHT22;2593;52.466;13.436;2022-11-15T13:43:43;12.60;99.90
5150;DHT22;2593;52.466;13.436;2022-11-15T13:46:25;12.60;99.90
5150;DHT22;2593;52.466;13.436;2022-11-15T13:48:57;12.60;99.90
5150;DHT22;2593;52.466;13.436;2022-11-15T13:54:18;12.60;99.90
5150;DHT22;2593;52.466;13.436;2022-11-15T14:02:18;12.60;99.90
5150;DHT22;2593;52.466;13.436;2022-11-15T14:04:50;12.60;99.90
5150;DHT22;2593;52.466;13.436;2022-11-15T14:07:21;12.50;99.90
5150;DHT22;2593;52.466;13.436;2022-11-15T14:09:48;12.50;99.90
5150;DHT22;2593;52.466;13.436;2022-11-15T14:12:49;12.50;99.90
5150;DHT22;2593;52.466;13.436;2022-11-15T14:15:31;12.50;99.90
5150;DHT22;2593;52.466;13.436;2022-11-15T14:17:57;12.40;99.90
5150;DHT22;2593;52.466;13.436;2022-11-15T14:20:30;12.40;99.90
5150;DHT22;2593;52.466;13.436;2022-11-15T14:23:05;12.30;99.90
5150;DHT22;2593;52.466;13.436;2022-11-15T14:25:32;12.20;99.90
5150;DHT22;2593;52.466;13.436;2022-11-15T14:28:31;12.10;99.90
5150;DHT22;2593;52.466;13.436;2022-11-15T14:30:58;12.20;99.90
5150;DHT22;2593;52.466;13.436;2022-11-15T14:33:33;12.10;99.90
5150;DHT22;2593;52.466;13.436;2022-11-15T14:36:06;12.10;99.90
5150;DHT22;2593;52.466;13.436;2022-11-15T14:38:35;12.00;99.90
5150;DHT22;2593;52.466;13.436;2022-11-15T14:41:01;12.00;1.00
5150;DHT22;2593;52.466;13.436;2022-11-15T14:43:27;12.00;1.00
5150;DHT22;2593;52.466;13.436;2022-11-15T14:45:52;11.90;1.00
5150;DHT22;2593;52.466;13.436;2022-11-15T14:48:18;11.80;1.00
5150;DHT22;2593;52.466;13.436;2022-11-15T14:50:44;11.80;1.00
5150;DHT22;2593;52.466;13.436;2022-11-15T14:53:15;11.80;1.00
5150;DHT22;2593;52.466;13.436;2022-11-15T14:55:41;11.90;1.00
5150;DHT22;2593;52.466;13.436;2022-11-15T14:58:07;11.80;1.00
5150;DHT22;2593;52.466;13.436;2022-11-15T15:00:35;11.80;1.00
5150;DHT22;2593;52.466;13.436;2022-11-15T15:03:02;11.80;1.00
5150;DHT22;2593;52.466;13.436;2022-11-15T15:05:36;11.80;1.00
5150;DHT22;2593;52.466;13.436;2022-11-15T15:08:03;11.80;1.00
5150;DHT22;2593;52.466;13.436;2022-11-15T15:10:41;11.70;1.00
5150;DHT22;2593;52.466;13.436;2022-11-15T15:13:22;11.60;12.00
5150;DHT22;2593;52.466;13.436;2022-11-15T15:15:50;11.50;99.90
5150;DHT22;2593;52.466;13.436;2022-11-15T15:18:16;11.50;99.90
5150;DHT22;2593;52.466;13.436;2022-11-15T15:20:44;11.40;99.90
5150;DHT22;2593;52.466;13.436;2022-11-15T15:23:19;11.30;99.90
5150;DHT22;2593;52.466;13.436;2022-11-15T15:25:46;11.30;1.00
5150;DHT22;2593;52.466;13.436;2022-11-15T15:28:14;11.20;1.00
5150;DHT22;2593;52.466;13.436;2022-11-15T15:30:40;11.20;1.00
5150;DHT22;2593;52.466;13.436;2022-11-15T15:33:06;11.10;99.90
5150;DHT22;2593;52.466;13.436;2022-11-15T15:35:33;11.10;99.90
5150;DHT22;2593;52.466;13.436;2022-11-15T15:37:59;11.10;1.00
5150;DHT22;2593;52.466;13.436;2022-11-15T15:40:27;11.00;1.00
5150;DHT22;2593;52.466;13.436;2022-11-15T15:42:52;10.90;99.90
5150;DHT22;2593;52.466;13.436;2022-11-15T15:45:19;10.90;1.00
5150;DHT22;2593;52.466;13.436;2022-11-15T15:47:45;10.90;10.70
5150;DHT22;2593;52.466;13.436;2022-11-15T15:50:27;10.80;99.90
5150;DHT22;2593;52.466;13.436;2022-11-15T15:52:54;10.80;99.90
5150;DHT22;2593;52.466;13.436;2022-11-15T15:55:21;10.80;1.00
5150;DHT22;2593;52.466;13.436;2022-11-15T15:57:47;10.70;99.90
5150;DHT22;2593;52.466;13.436;2022-11-15T16:00:13;10.70;1.00
5150;DHT22;2593;52.466;13.436;2022-11-15T16:02:40;10.70;1.00
5150;DHT22;2593;52.466;13.436;2022-11-15T16:05:07;10.70;1.00
5150;DHT22;2593;52.466;13.436;2022-11-15T16:07:33;10.60;99.90
5150;DHT22;2593;52.466;13.436;2022-11-15T16:09:58;10.50;1.00
5150;DHT22;2593;52.466;13.436;2022-11-15T16:12:32;10.40;99.90
5150;DHT22;2593;52.466;13.436;2022-11-15T16:14:58;10.40;99.90
5150;DHT22;2593;52.466;13.436;2022-11-15T16:17:27;10.40;99.90
5150;DHT22;2593;52.466;13.436;2022-11-15T16:19:54;10.40;99.90
5150;DHT22;2593;52.466;13.436;2022-11-15T16:22:20;10.40;99.90
5150;DHT22;2593;52.466;13.436;2022-11-15T16:24:45;10.40;99.90
5150;DHT22;2593;52.466;13.436;2022-11-15T16:27:19;10.30;99.90
5150;DHT22;2593;52.466;13.436;2022-11-15T16:29:46;10.40;1.00
5150;DHT22;2593;52.466;13.436;2022-11-15T16:32:12;10.30;1.00
5150;DHT22;2593;52.466;13.436;2022-11-15T16:34:38;10.30;1.00
5150;DHT22;2593;52.466;13.436;2022-11-15T16:37:04;10.30;1.00
5150;DHT22;2593;52.466;13.436;2022-11-15T16:39:30;10.20;1.00
5150;DHT22;2593;52.466;13.436;2022-11-15T16:41:59;10.10;1.00
5150;DHT22;2593;52.466;13.436;2022-11-15T16:44:25;10.10;1.00
5150;DHT22;2593;52.466;13.436;2022-11-15T16:46:52;9.90;1.00
5150;DHT22;2593;52.466;13.436;2022-11-15T16:49:21;9.90;1.00
5150;DHT22;2593;52.466;13.436;2022-11-15T16:51:49;9.80;29.80
5150;DHT22;2593;52.466;13.436;2022-11-15T16:54:15;9.70;86.10
5150;DHT22;2593;52.466;13.436;2022-11-15T16:56:40;9.70;99.90
5150;DHT22;2593;52.466;13.436;2022-11-15T16:59:08;9.60;99.90
5150;DHT22;2593;52.466;13.436;2022-11-15T17:01:37;9.50;99.90
5150;DHT22;2593;52.466;13.436;2022-11-15T17:04:12;9.40;99.90
5150;DHT22;2593;52.466;13.436;2022-11-15T17:06:39;9.40;99.90
5150;DHT22;2593;52.466;13.436;2022-11-15T17:09:09;9.30;99.90
5150;DHT22;2593;52.466;13.436;2022-11-15T17:11:35;9.30;99.90
5150;DHT22;2593;52.466;13.436;2022-11-15T17:14:01;9.20;99.90
5150;DHT22;2593;52.466;13.436;2022-11-15T17:16:26;9.30;99.90
5150;DHT22;2593;52.466;13.436;2022-11-15T17:18:52;9.20;99.90
5150;DHT22;2593;52.466;13.436;2022-11-15T17:21:21;9.10;99.90
5150;DHT22;2593;52.466;13.436;2022-11-15T17:23:47;9.00;99.90
5150;DHT22;2593;52.466;13.436;2022-11-15T17:26:14;9.00;99.90
5150;DHT22;2593;52.466;13.436;2022-11-15T17:28:40;8.90;99.90
5150;DHT22;2593;52.466;13.436;2022-11-15T17:31:08;8.90;99.90
5150;DHT22;2593;52.466;13.436;2022-11-15T17:33:34;8.80;99.90
5150;DHT22;2593;52.466;13.436;2022-11-15T17:36:02;8.80;99.90
5150;DHT22;2593;52.466;13.436;2022-11-15T17:38:28;8.70;99.90
5150;DHT22;2593;52.466;13.436;2022-11-15T17:41:05;8.60;99.90
5150;DHT22;2593;52.466;13.436;2022-11-15T17:43:33;8.50;99.90
5150;DHT22;2593;52.466;13.436;2022-11-15T17:46:00;8.50;99.90
5150;DHT22;2593;52.466;13.436;2022-11-15T17:48:29;8.50;99.90
5150;DHT22;2593;52.466;13.436;2022-11-15T17:51:00;8.40;99.90
5150;DHT22;2593;52.466;13.436;2022-11-15T17:53:26;8.50;99.90
5150;DHT22;2593;52.466;13.436;2022-11-15T17:56:09;8.40;99.90
5150;DHT22;2593;52.466;13.436;2022-11-15T17:58:35;8.40;99.90
5150;DHT22;2593;52.466;13.436;2022-11-15T18:01:31;8.30;99.90
5150;DHT22;2593;52.466;13.436;2022-11-15T18:03:58;8.30;99.90
5150;DHT22;2593;52.466;13.436;2022-11-15T18:06:26;8.20;99.90
5150;DHT22;2593;52.466;13.436;2022-11-15T18:08:53;8.20;99.90
5150;DHT22;2593;52.466;13.436;2022-11-15T18:11:39;8.10;99.90